Time;durP1;ratioP1;P1;durP2;ratioP2;P2;SDS_P1;SDS_P2;PMS_P1;PMS_P2;Temp;Humidity;BMP_temperature;BMP_pressure;BME280_temperature;BME280_humidity;BME280_pressure;Samples;Min_cycle;Max_cycle;Signal;HPM_P1;HPM_P2
2022/05/08 00:00:04;;;;;;;7.53;4.63;;;;;;;14.35;63.34;101235.84;2087689;28;20053;-71
2022/05/08 00:01:37;;;;;;;8.90;4.18;;;;;;;14.32;63.49;101236.69;2089148;28;20053;-71
2022/05/08 00:02:59;;;;;;;8.43;4.05;;;;;;;14.26;63.49;101241.97;2079492;28;20088;-71
2022/05/08 00:04:23;;;;;;;11.88;3.65;;;;;;;14.17;63.75;101241.00;2084453;28;20049;-71
2022/05/08 00:05:45;;;;;;;8.63;3.58;;;;;;;14.13;63.98;101236.53;2079171;28;20108;-71
2022/05/08 00:07:10;;;;;;;9.52;4.13;;;;;;;14.17;64.01;101233.03;2087481;28;20567;-71
2022/05/08 00:08:31;;;;;;;9.60;4.25;;;;;;;14.23;63.84;101234.00;2087773;28;20036;-71
2022/05/08 00:09:53;;;;;;;8.13;4.28;;;;;;;14.29;63.54;101223.41;2079896;28;20415;-70
2022/05/08 00:11:16;;;;;;;11.88;3.95;;;;;;;14.31;63.26;101232.25;2086885;28;20083;-71
2022/05/08 00:12:39;;;;;;;13.98;4.35;;;;;;;14.34;63.27;101234.94;2084931;28;20538;-71
2022/05/08 00:14:02;;;;;;;8.02;3.65;;;;;;;14.33;63.28;101238.47;2088840;28;20052;-71
2022/05/08 00:15:23;;;;;;;10.60;4.25;;;;;;;14.35;63.10;101239.38;2081952;28;20156;-71
2022/05/08 00:16:46;;;;;;;9.05;3.83;;;;;;;14.40;62.93;101241.22;2087083;28;20127;-71
2022/05/08 00:18:09;;;;;;;9.10;4.05;;;;;;;14.41;62.95;101232.38;2085484;28;20091;-71
2022/05/08 00:19:33;;;;;;;7.78;3.85;;;;;;;14.41;63.11;101238.59;2087439;28;20055;-71
2022/05/08 00:20:54;;;;;;;6.82;3.63;;;;;;;14.38;63.17;101241.19;2078505;28;20445;-71
2022/05/08 00:22:17;;;;;;;9.77;3.47;;;;;;;14.34;63.21;101236.72;2083960;28;20044;-71
2022/05/08 00:23:39;;;;;;;8.88;3.83;;;;;;;14.29;63.49;101230.50;2077077;28;20533;-71
2022/05/08 00:25:03;;;;;;;8.23;3.75;;;;;;;14.24;63.63;101233.09;2084654;28;20279;-71
2022/05/08 00:26:26;;;;;;;11.07;4.30;;;;;;;14.23;63.60;101235.75;2086406;28;20059;-72
2022/05/08 00:27:47;;;;;;;10.10;5.07;;;;;;;14.19;63.71;101232.16;2086010;28;20102;-71
2022/05/08 00:29:11;;;;;;;8.65;4.18;;;;;;;14.19;63.97;101240.13;2086571;28;20049;-71
2022/05/08 00:30:36;;;;;;;8.88;4.10;;;;;;;14.24;63.95;101241.06;2089765;28;20056;-71
2022/05/08 00:31:59;;;;;;;9.20;4.07;;;;;;;14.29;63.86;101239.34;2089717;28;20048;-71
2022/05/08 00:33:20;;;;;;;9.27;3.88;;;;;;;14.35;63.73;101241.16;2085829;28;20136;-71
2022/05/08 00:34:44;;;;;;;10.73;3.78;;;;;;;14.38;63.53;101235.88;2089962;28;20073;-71
2022/05/08 00:36:07;;;;;;;8.82;4.75;;;;;;;14.42;63.42;101239.47;2078154;28;20096;-71
2022/05/08 00:37:29;;;;;;;11.55;4.38;;;;;;;14.43;63.35;101233.28;2085215;28;20049;-71
2022/05/08 00:38:50;;;;;;;7.18;3.80;;;;;;;14.44;63.38;101235.06;2086935;28;20477;-71
2022/05/08 00:40:13;;;;;;;8.20;3.85;;;;;;;14.42;63.33;101229.75;2087323;28;20049;-71
2022/05/08 00:41:36;;;;;;;8.60;3.97;;;;;;;14.42;63.39;101239.47;2095833;28;20045;-71
2022/05/08 00:42:58;;;;;;;7.55;4.57;;;;;;;14.41;63.47;101237.69;2088752;28;20056;-71
2022/05/08 00:44:21;;;;;;;11.80;4.47;;;;;;;14.37;63.65;101231.44;2087315;28;20049;-72
2022/05/08 00:45:42;;;;;;;10.65;4.22;;;;;;;14.34;63.87;101234.94;2084755;28;20418;-71
2022/05/08 00:47:05;;;;;;;9.43;4.15;;;;;;;14.30;63.98;101227.84;2078615;28;20145;-71
2022/05/08 00:48:28;;;;;;;8.48;4.15;;;;;;;14.27;64.12;101222.50;2075454;28;20056;-71
2022/05/08 00:49:52;;;;;;;10.15;4.20;;;;;;;14.24;64.31;101210.97;2092948;28;20089;-71
2022/05/08 00:51:17;;;;;;;9.43;3.92;;;;;;;14.20;64.39;101219.78;2081295;28;20540;-71
2022/05/08 00:52:39;;;;;;;9.75;4.18;;;;;;;14.16;64.57;101220.63;2086304;28;20075;-71
2022/05/08 00:54:04;;;;;;;8.48;3.50;;;;;;;14.08;64.71;101212.59;2085834;28;20056;-71
2022/05/08 00:55:26;;;;;;;11.90;4.70;;;;;;;14.01;65.00;101221.38;2077404;28;20111;-71
2022/05/08 00:56:49;;;;;;;8.60;3.72;;;;;;;14.01;65.25;101221.38;2081645;28;20056;-71
2022/05/08 00:58:11;;;;;;;8.18;3.80;;;;;;;14.03;65.28;101230.28;2083992;28;20480;-71
2022/05/08 00:59:34;;;;;;;6.97;3.97;;;;;;;14.07;65.25;101225.88;2082776;28;20499;-71
2022/05/08 01:00:56;;;;;;;8.27;4.35;;;;;;;14.12;65.17;101222.38;2070736;28;20108;-71
2022/05/08 01:02:18;;;;;;;8.95;4.18;;;;;;;14.18;65.16;101224.19;2085792;28;20045;-71
2022/05/08 01:03:41;;;;;;;10.23;4.38;;;;;;;14.23;65.12;101218.06;2087115;28;21331;-71
2022/05/08 01:05:07;;;;;;;8.50;4.28;;;;;;;14.29;65.20;101217.22;2079001;28;20049;-71
2022/05/08 01:06:32;;;;;;;13.68;5.00;;;;;;;14.34;65.11;101216.34;2087548;28;20559;-71
2022/05/08 01:07:53;;;;;;;7.82;4.22;;;;;;;14.34;65.02;101204.84;2087355;28;20056;-72
2022/05/08 01:09:16;;;;;;;11.18;4.07;;;;;;;14.31;64.99;101197.72;2077989;28;20487;-71
2022/05/08 01:10:40;;;;;;;6.75;3.85;;;;;;;14.28;65.01;101199.50;2078699;28;20053;-70
2022/05/08 01:12:02;;;;;;;6.78;4.07;;;;;;;14.25;65.11;101196.78;2087131;28;20045;-71
2022/05/08 01:13:25;;;;;;;7.10;3.72;;;;;;;14.26;65.09;101198.56;2087130;28;20057;-71
2022/05/08 01:14:46;;;;;;;7.47;3.75;;;;;;;14.28;64.91;101200.38;2078557;28;20049;-71
2022/05/08 01:16:09;;;;;;;9.95;3.42;;;;;;;14.28;65.01;101202.16;2074840;28;20115;-71
2022/05/08 01:17:31;;;;;;;7.82;3.83;;;;;;;14.30;65.00;101201.28;2087673;28;20057;-71
2022/05/08 01:18:53;;;;;;;9.35;3.70;;;;;;;14.34;64.76;101205.75;2081020;28;20430;-71
2022/05/08 01:20:16;;;;;;;7.45;3.42;;;;;;;14.40;64.55;101196.06;2081274;28;20049;-71
2022/05/08 01:21:42;;;;;;;5.68;3.33;;;;;;;14.44;64.49;101200.53;2078762;28;20175;-71
2022/05/08 01:23:05;;;;;;;10.05;4.05;;;;;;;14.45;64.31;101200.53;2094201;28;20110;-71
2022/05/08 01:24:28;;;;;;;8.43;3.70;;;;;;;14.46;64.24;101201.41;2089330;28;20556;-71
2022/05/08 01:25:52;;;;;;;9.27;3.75;;;;;;;14.45;64.35;101216.47;2085953;28;20068;-71
2022/05/08 01:27:14;;;;;;;8.90;3.97;;;;;;;14.41;64.46;101211.13;2086072;28;20371;-71
2022/05/08 01:28:37;;;;;;;8.00;4.00;;;;;;;14.39;64.76;101212.88;2086453;28;20037;-71
2022/05/08 01:29:58;;;;;;;11.75;4.63;;;;;;;14.36;64.73;101213.72;2078051;28;20109;-71
2022/05/08 01:31:21;;;;;;;13.75;4.60;;;;;;;14.28;65.02;101210.13;2083776;28;20079;-71
2022/05/08 01:32:42;;;;;;;11.00;3.92;;;;;;;14.21;65.14;101213.59;2075625;28;20053;-70
2022/05/08 01:34:05;;;;;;;8.25;4.00;;;;;;;14.19;65.35;101215.34;2086770;28;20064;-71
2022/05/08 01:35:27;;;;;;;7.28;3.50;;;;;;;14.20;65.26;101212.69;2072574;28;20078;-71
2022/05/08 01:36:51;;;;;;;9.02;3.83;;;;;;;14.24;65.29;101226.91;2078753;28;20514;-71
2022/05/08 01:38:16;;;;;;;7.65;2.92;;;;;;;14.27;65.16;101217.19;2078965;28;20099;-71
2022/05/08 01:39:38;;;;;;;9.07;4.32;;;;;;;14.27;65.19;101217.19;2084218;28;20037;-71
2022/05/08 01:41:04;;;;;;;8.25;3.35;;;;;;;14.29;65.04;101212.78;2081031;28;20103;-71
2022/05/08 01:42:27;;;;;;;8.38;4.00;;;;;;;14.31;65.01;101215.44;2078955;28;20069;-71
2022/05/08 01:43:49;;;;;;;8.50;3.75;;;;;;;14.32;64.86;101211.91;2078634;28;20041;-71
2022/05/08 01:45:11;;;;;;;8.45;3.90;;;;;;;14.33;64.70;101211.91;2070333;28;20377;-71
2022/05/08 01:46:33;;;;;;;;;;;;;;;14.36;64.70;101211.06;2076853;28;20042;-71
2022/05/08 01:49:34;;;;;;;9.05;4.25;;;;;;;14.41;64.54;101208.47;2080414;28;20111;-70
2022/05/08 01:50:58;;;;;;;8.88;4.05;;;;;;;14.43;64.50;101204.06;2083903;28;20132;-71
2022/05/08 01:52:21;;;;;;;10.07;4.78;;;;;;;14.43;64.65;101206.72;2084140;28;20082;-71
2022/05/08 01:53:43;;;;;;;9.43;4.05;;;;;;;14.39;65.02;101202.25;2078487;28;20052;-71
2022/05/08 01:55:05;;;;;;;10.57;4.00;;;;;;;14.43;64.99;101199.66;2078417;28;20123;-71
2022/05/08 01:56:28;;;;;;;9.30;3.97;;;;;;;14.44;64.94;101200.53;2082233;28;20064;-70
2022/05/08 01:57:49;;;;;;;7.50;3.50;;;;;;;14.45;64.83;101199.63;2089213;28;20045;-71
2022/05/08 01:59:12;;;;;;;6.82;3.45;;;;;;;14.48;64.76;101203.22;2086498;28;20219;-71
2022/05/08 02:00:33;;;;;;;9.30;3.80;;;;;;;14.48;64.91;101204.97;2077210;28;20746;-71
2022/05/08 02:01:56;;;;;;;9.38;4.10;;;;;;;14.49;64.92;101201.44;2075413;28;20059;-71
2022/05/08 02:03:20;;;;;;;10.02;4.00;;;;;;;14.51;64.96;101197.91;2078380;28;20041;-71
2022/05/08 02:04:41;;;;;;;7.22;3.22;;;;;;;14.55;64.92;101196.16;2094859;28;20097;-71
2022/05/08 02:06:05;;;;;;;8.77;4.30;;;;;;;14.58;65.02;101197.06;2083476;28;20144;-71
2022/05/08 02:07:28;;;;;;;7.18;3.55;;;;;;;14.62;64.65;101200.66;2078627;28;20138;-72
2022/05/08 02:08:52;;;;;;;7.85;3.35;;;;;;;14.60;64.52;101200.63;2080982;28;20115;-71
2022/05/08 02:10:14;;;;;;;5.93;3.25;;;;;;;14.58;64.41;101198.84;2077740;28;20118;-71
2022/05/08 02:11:37;;;;;;;8.48;3.70;;;;;;;14.52;64.56;101205.00;2085352;28;20048;-71
2022/05/08 02:12:59;;;;;;;7.38;3.00;;;;;;;14.44;64.65;101200.53;2076684;28;20102;-71
2022/05/08 02:14:21;;;;;;;8.43;3.58;;;;;;;14.30;64.94;101198.63;2084108;28;20079;-71
2022/05/08 02:15:43;;;;;;;7.25;3.47;;;;;;;14.18;65.16;101195.84;2077236;28;20033;-71
2022/05/08 02:17:08;;;;;;;9.45;3.67;;;;;;;14.08;65.49;101194.03;2084106;28;20506;-71
2022/05/08 02:18:31;;;;;;;7.63;3.40;;;;;;;14.03;65.54;101195.75;2078470;28;20045;-71
2022/05/08 02:19:52;;;;;;;7.85;3.72;;;;;;;14.05;65.65;101196.63;2078453;28;20073;-71
2022/05/08 02:21:14;;;;;;;10.82;3.75;;;;;;;14.11;65.69;101194.03;2078268;28;20042;-71
2022/05/08 02:22:38;;;;;;;6.80;3.67;;;;;;;14.17;65.50;101204.72;2078586;28;20407;-71
2022/05/08 02:24:00;;;;;;;6.68;3.42;;;;;;;14.17;65.56;101199.41;2085227;28;20175;-71
2022/05/08 02:25:23;;;;;;;7.35;3.67;;;;;;;14.20;65.29;101212.69;2086249;28;20622;-71
2022/05/08 02:26:45;;;;;;;7.45;3.42;;;;;;;14.17;65.26;101210.03;2080734;28;20537;-71
2022/05/08 02:28:09;;;;;;;7.05;4.15;;;;;;;14.17;65.28;101210.03;2092463;28;20060;-71
2022/05/08 02:29:31;;;;;;;9.68;3.88;;;;;;;14.19;65.39;101218.00;2087882;28;20468;-71
2022/05/08 02:30:54;;;;;;;8.20;3.67;;;;;;;14.19;65.50;101210.91;2078136;28;20068;-71
2022/05/08 02:32:15;;;;;;;9.63;3.83;;;;;;;14.21;65.35;101209.19;2076637;28;20481;-72
2022/05/08 02:33:37;;;;;;;7.85;3.95;;;;;;;14.19;65.47;101205.59;2080788;28;20054;-72
2022/05/08 02:34:58;;;;;;;9.35;4.03;;;;;;;14.15;65.56;101201.16;2083726;28;20045;-71
2022/05/08 02:36:21;;;;;;;7.60;4.15;;;;;;;14.12;65.76;101203.78;2077962;28;20085;-71
2022/05/08 02:37:48;;;;;;;7.82;3.72;;;;;;;14.12;65.85;101205.53;2086292;28;20036;-71
2022/05/08 02:39:09;;;;;;;7.40;3.42;;;;;;;14.11;65.90;101211.75;2078784;28;20104;-72
2022/05/08 02:40:32;;;;;;;7.60;3.83;;;;;;;14.12;65.97;101209.09;2077251;28;20511;-71
2022/05/08 02:41:53;;;;;;;11.45;3.60;;;;;;;14.14;66.04;101212.66;2083739;28;20080;-71
2022/05/08 02:43:18;;;;;;;8.52;3.13;;;;;;;14.19;65.88;101220.66;2064692;28;20051;-71
2022/05/08 02:44:39;;;;;;;7.15;3.75;;;;;;;14.20;65.81;101228.63;2074922;28;20584;-71
2022/05/08 02:46:02;;;;;;;8.70;3.53;;;;;;;14.18;65.77;101218.88;2085735;28;20048;-71
2022/05/08 02:47:24;;;;;;;8.48;4.10;;;;;;;14.15;65.88;101227.72;2086590;28;20048;-71
2022/05/08 02:48:46;;;;;;;8.13;3.33;;;;;;;14.11;65.98;101217.94;2078149;28;20091;-73
2022/05/08 02:50:11;;;;;;;13.27;4.13;;;;;;;14.13;66.22;101217.94;2082812;28;20041;-71
2022/05/08 02:51:32;;;;;;;12.15;3.70;;;;;;;14.17;66.38;101217.13;2093453;28;20048;-71
2022/05/08 02:52:56;;;;;;;7.53;3.47;;;;;;;14.22;66.30;101215.38;2086877;28;20049;-71
2022/05/08 02:54:17;;;;;;;10.23;3.88;;;;;;;14.20;66.35;101228.63;2086060;28;20051;-71
2022/05/08 02:58:58;;;;;;;11.85;4.38;;;;;;;14.20;66.58;101218.00;2088521;28;20051;-71
2022/05/08 03:00:21;;;;;;;11.07;4.00;;;;;;;14.24;66.48;101219.81;2081227;28;20091;-71
2022/05/08 03:01:42;;;;;;;7.90;4.32;;;;;;;14.27;66.35;101219.84;2086509;28;20057;-71
2022/05/08 03:03:06;;;;;;;10.43;3.63;;;;;;;14.29;66.32;101225.19;2072493;28;20033;-71
2022/05/08 03:04:28;;;;;;;7.60;3.58;;;;;;;14.28;66.36;101216.31;2081216;28;20052;-71
2022/05/08 03:05:51;;;;;;;7.70;4.35;;;;;;;14.27;66.40;101217.19;2094386;28;20493;-71
2022/05/08 03:07:13;;;;;;;9.52;4.28;;;;;;;14.27;66.42;101209.22;2080627;28;20056;-71
2022/05/08 03:08:37;;;;;;;9.10;3.85;;;;;;;14.28;66.44;101204.81;2086258;28;20434;-71
2022/05/08 03:10:00;;;;;;;10.60;3.65;;;;;;;14.23;66.50;101209.19;2075800;28;21802;-71
2022/05/08 03:11:27;;;;;;;7.60;3.95;;;;;;;14.19;66.55;101199.41;2072516;28;20029;-71
2022/05/08 03:12:49;;;;;;;9.20;3.92;;;;;;;14.20;66.73;101198.53;2087381;28;20108;-71
2022/05/08 03:14:11;;;;;;;7.82;3.25;;;;;;;14.23;66.73;101198.56;2080762;28;20095;-71
2022/05/08 03:15:33;;;;;;;8.00;4.18;;;;;;;14.24;66.69;101203.00;2093067;28;20045;-71
2022/05/08 03:16:55;;;;;;;8.90;4.15;;;;;;;14.25;66.75;101205.66;2080424;28;20069;-71
2022/05/08 03:18:18;;;;;;;9.27;3.55;;;;;;;14.30;66.62;101203.94;2083683;28;20151;-71
2022/05/08 03:19:42;;;;;;;7.88;3.35;;;;;;;14.39;66.64;101203.13;2086329;28;20073;-71
2022/05/08 03:21:03;;;;;;;7.25;3.40;;;;;;;14.45;66.31;101208.50;2084622;28;20057;-71
2022/05/08 03:22:26;;;;;;;10.07;4.22;;;;;;;14.52;66.16;101204.09;2086334;28;20041;-71
2022/05/08 03:23:51;;;;;;;9.07;3.80;;;;;;;14.57;66.10;101203.25;2086152;28;20060;-71
2022/05/08 03:25:12;;;;;;;10.27;3.90;;;;;;;14.60;66.05;101203.28;2080696;28;20049;-71
2022/05/08 03:26:36;;;;;;;10.45;3.63;;;;;;;14.63;66.10;101202.44;2085065;28;20045;-71
2022/05/08 03:27:57;;;;;;;9.45;4.00;;;;;;;14.61;66.03;101198.88;2085973;28;20080;-72
2022/05/08 03:29:20;;;;;;;9.63;4.10;;;;;;;14.57;66.35;101203.25;2086215;28;20057;-71
2022/05/08 03:30:41;;;;;;;7.82;3.63;;;;;;;14.57;66.53;101200.59;2083121;28;20442;-71
2022/05/08 03:32:04;;;;;;;10.90;4.22;;;;;;;14.60;66.50;101202.41;2077370;28;20163;-71
2022/05/08 03:33:26;;;;;;;6.00;3.42;;;;;;;14.60;66.46;101197.97;2077989;28;20128;-71
2022/05/08 03:34:48;;;;;;;5.20;3.00;;;;;;;14.54;66.36;101192.63;2088388;28;20052;-71
2022/05/08 03:36:11;;;;;;;4.88;2.88;;;;;;;14.48;66.42;101189.03;2088315;28;20045;-71
2022/05/08 03:37:34;;;;;;;6.28;3.42;;;;;;;14.43;66.38;101189.03;2086479;28;20053;-72
2022/05/08 03:38:58;;;;;;;8.93;3.55;;;;;;;14.48;66.40;101191.69;2094386;28;20047;-71
2022/05/08 03:40:19;;;;;;;9.43;4.00;;;;;;;14.54;66.28;101199.69;2088606;28;20082;-70
2022/05/08 03:41:42;;;;;;;8.00;3.60;;;;;;;14.62;66.09;101200.66;2088489;28;20037;-71
2022/05/08 03:43:03;;;;;;;7.28;3.42;;;;;;;14.70;65.82;101212.22;2084782;28;20053;-72
2022/05/08 03:44:26;;;;;;;8.32;3.22;;;;;;;14.75;65.67;101214.03;2085957;28;20049;-71
2022/05/08 03:45:49;;;;;;;13.52;4.15;;;;;;;14.78;65.52;101213.13;2085203;28;20055;-71
2022/05/08 03:47:11;;;;;;;7.25;3.55;;;;;;;14.80;65.66;101216.69;2086022;28;20045;-71
2022/05/08 03:48:34;;;;;;;7.00;3.40;;;;;;;14.83;65.43;101219.38;2085759;28;20563;-71
2022/05/08 03:49:57;;;;;;;8.40;3.40;;;;;;;14.83;65.47;101214.06;2080682;28;20037;-71
2022/05/08 03:51:19;;;;;;;10.25;3.50;;;;;;;14.83;65.38;101205.19;2078970;28;20136;-71
2022/05/08 03:52:40;;;;;;;6.65;3.13;;;;;;;14.85;65.25;101212.28;2079272;28;20069;-71
2022/05/08 03:54:08;;;;;;;11.73;4.25;;;;;;;14.88;65.19;101211.44;2091697;28;20052;-71
2022/05/08 03:55:30;;;;;;;7.03;3.17;;;;;;;14.89;65.19;101223.84;2084714;28;20037;-71
2022/05/08 03:56:53;;;;;;;10.57;3.83;;;;;;;14.92;65.17;101232.69;2085942;28;20091;-70
2022/05/08 03:58:16;;;;;;;9.93;3.55;;;;;;;14.99;65.16;101230.97;2086247;28;20107;-71
2022/05/08 03:59:38;;;;;;;7.03;3.63;;;;;;;15.04;64.97;101231.88;2077744;28;20128;-71
2022/05/08 04:01:01;;;;;;;9.10;3.85;;;;;;;15.13;64.77;101237.25;2082242;28;20052;-71
2022/05/08 04:02:22;;;;;;;7.70;3.45;;;;;;;15.20;64.90;101233.72;2075783;28;20084;-71
2022/05/08 04:03:45;;;;;;;9.82;4.22;;;;;;;15.26;64.83;101235.53;2083193;28;20811;-71
2022/05/08 04:05:07;;;;;;;15.68;5.45;;;;;;;15.30;64.87;101230.22;2086137;28;20083;-71
2022/05/08 04:06:31;;;;;;;6.00;3.65;;;;;;;15.35;64.96;101232.91;2070086;28;20049;-71
2022/05/08 04:07:52;;;;;;;8.77;3.47;;;;;;;15.41;64.90;101232.94;2076379;28;20049;-71
2022/05/08 04:09:17;;;;;;;7.47;3.47;;;;;;;15.47;64.78;101228.53;2080409;28;20053;-71
2022/05/08 04:10:40;;;;;;;9.32;4.15;;;;;;;15.50;64.92;101227.63;2086074;28;20544;-72
2022/05/08 04:12:02;;;;;;;9.80;3.85;;;;;;;15.59;64.71;101217.03;2077621;28;20103;-71
2022/05/08 04:13:25;;;;;;;6.90;3.95;;;;;;;15.68;64.53;101211.75;2079429;28;20068;-71
2022/05/08 04:14:48;;;;;;;7.55;3.50;;;;;;;15.77;64.49;101214.41;2077927;28;20100;-71
2022/05/08 04:16:16;;;;;;;9.07;3.05;;;;;;;15.82;64.04;101211.75;2077786;28;20502;-71
2022/05/08 04:17:38;;;;;;;7.97;2.95;;;;;;;15.80;63.91;101211.78;2078042;28;20048;-71
2022/05/08 04:19:01;;;;;;;5.50;2.92;;;;;;;15.77;63.69;101216.19;2084319;28;20072;-71
2022/05/08 04:20:22;;;;;;;7.07;2.90;;;;;;;15.80;63.63;101224.19;2083309;28;20044;-71
2022/05/08 04:21:45;;;;;;;9.50;3.70;;;;;;;15.89;63.31;101222.41;2077183;28;20435;-71
2022/05/08 04:24:47;;;;;;;10.40;4.07;;;;;;;16.05;63.00;101228.66;2079450;28;20442;-71
2022/05/08 04:26:10;;;;;;;6.40;3.58;;;;;;;16.09;63.10;101229.53;2084868;28;20045;-71
2022/05/08 04:27:32;;;;;;;7.43;4.05;;;;;;;16.14;62.99;101227.78;2079057;28;20046;-70
2022/05/08 04:28:55;;;;;;;10.70;4.15;;;;;;;16.17;62.93;101236.66;2071098;28;20080;-71
2022/05/08 04:30:18;;;;;;;8.32;4.05;;;;;;;16.22;63.03;101241.97;2079133;28;20046;-71
2022/05/08 04:31:40;;;;;;;8.27;3.80;;;;;;;16.25;63.14;101237.53;2088903;28;20156;-71
2022/05/08 04:33:04;;;;;;;9.35;3.90;;;;;;;16.28;63.02;101242.84;2081457;28;20080;-72
2022/05/08 04:34:27;;;;;;;8.43;3.50;;;;;;;16.31;63.09;101242.88;2086724;28;20814;-71
2022/05/08 04:35:48;;;;;;;8.85;3.53;;;;;;;16.38;63.18;101242.88;2083761;28;20049;-71
2022/05/08 04:37:10;;;;;;;7.57;3.63;;;;;;;16.41;63.16;101243.75;2078860;28;20046;-71
2022/05/08 04:38:33;;;;;;;9.57;4.25;;;;;;;16.47;63.28;101254.44;2084961;28;20041;-71
2022/05/08 04:39:58;;;;;;;7.57;3.50;;;;;;;16.55;63.30;101251.72;2086948;28;20045;-71
2022/05/08 04:41:20;;;;;;;10.10;4.07;;;;;;;16.58;63.36;101268.63;2095392;28;20052;-72
2022/05/08 04:42:42;;;;;;;9.52;4.45;;;;;;;16.60;63.39;101260.66;2089034;28;20052;-71
2022/05/08 04:44:05;;;;;;;8.68;4.35;;;;;;;16.61;63.52;101262.41;2071009;28;20153;-71
2022/05/08 04:45:26;;;;;;;6.10;3.45;;;;;;;16.64;63.71;101259.75;2076600;28;20412;-71
2022/05/08 04:46:49;;;;;;;9.88;3.78;;;;;;;16.66;63.71;101269.53;2082881;28;20179;-71
2022/05/08 04:48:11;;;;;;;9.05;3.72;;;;;;;16.69;63.97;101271.28;2095244;28;20048;-71
2022/05/08 04:49:34;;;;;;;10.10;4.25;;;;;;;16.70;64.02;101262.41;2073492;28;20050;-71
2022/05/08 04:50:57;;;;;;;7.88;3.45;;;;;;;16.71;64.19;101261.53;2084613;28;20497;-71
2022/05/08 04:52:18;;;;;;;9.63;4.03;;;;;;;16.70;64.38;101260.63;2074169;28;20055;-71
2022/05/08 04:53:43;;;;;;;8.85;4.30;;;;;;;16.71;64.54;101262.41;2079088;28;20435;-71
2022/05/08 04:55:08;;;;;;;9.02;3.83;;;;;;;16.73;64.78;101265.97;2084305;28;20560;-71
2022/05/08 04:56:31;;;;;;;11.43;3.38;;;;;;;16.75;64.66;101257.97;2087142;28;20041;-71
2022/05/08 04:57:54;;;;;;;7.15;3.22;;;;;;;16.73;64.39;101255.31;2087039;28;20086;-71
2022/05/08 04:59:16;;;;;;;6.78;3.00;;;;;;;16.71;64.25;101253.53;2087064;28;20045;-71
2022/05/08 05:00:38;;;;;;;5.88;2.60;;;;;;;16.73;64.03;101252.66;2087112;28;20420;-71
2022/05/08 05:02:02;;;;;;;10.90;3.10;;;;;;;16.81;63.74;101252.59;2088079;28;20067;-71
2022/05/08 05:03:25;;;;;;;9.93;3.10;;;;;;;17.09;63.08;101246.31;2087035;28;20045;-71
2022/05/08 05:04:46;;;;;;;7.68;3.30;;;;;;;17.61;62.22;101247.91;2087309;28;20041;-72
2022/05/08 05:06:09;;;;;;;11.07;3.58;;;;;;;17.91;61.64;101245.97;2086634;28;20053;-71
2022/05/08 05:07:30;;;;;;;13.45;3.28;;;;;;;18.07;61.42;101246.72;2078348;28;20450;-71
2022/05/08 05:08:53;;;;;;;6.90;3.30;;;;;;;18.24;61.47;101242.16;2084689;28;20060;-72
2022/05/08 05:10:17;;;;;;;6.70;3.60;;;;;;;18.49;61.36;101248.16;2086948;28;20044;-71
2022/05/08 05:11:41;;;;;;;9.98;4.28;;;;;;;18.75;61.20;101253.28;2073436;28;20046;-71
2022/05/08 05:13:04;;;;;;;10.63;3.97;;;;;;;18.97;60.97;101256.63;2077169;28;20048;-71
2022/05/08 05:14:25;;;;;;;12.90;4.25;;;;;;;19.08;61.13;101252.03;2070736;28;20049;-71
2022/05/08 05:15:48;;;;;;;8.27;4.18;;;;;;;19.19;61.17;101254.59;2076122;28;20103;-71
2022/05/08 05:17:09;;;;;;;10.65;4.57;;;;;;;19.32;61.09;101249.06;2081321;28;20052;-72
2022/05/08 05:18:31;;;;;;;10.95;4.55;;;;;;;19.66;60.71;101249.53;2078406;28;20077;-71
2022/05/08 05:19:54;;;;;;;6.72;3.35;;;;;;;19.91;60.58;101244.72;2073106;28;20146;-71
2022/05/08 05:21:16;;;;;;;7.55;3.10;;;;;;;20.27;60.05;101244.16;2084084;28;20620;-71
2022/05/08 05:22:37;;;;;;;7.70;4.30;;;;;;;20.75;59.00;101248.69;2088815;28;20040;-71
2022/05/08 05:24:00;;;;;;;9.02;3.22;;;;;;;21.13;57.90;101240.81;2086280;28;20037;-72
2022/05/08 05:25:24;;;;;;;7.18;3.15;;;;;;;21.14;57.51;101242.56;2070396;28;20057;-71
2022/05/08 05:26:45;;;;;;;8.90;3.08;;;;;;;20.98;57.93;101247.38;2085286;28;20098;-72
2022/05/08 05:28:08;;;;;;;7.65;3.80;;;;;;;20.85;58.14;101250.31;2084512;28;20139;-72
2022/05/08 05:29:30;;;;;;;6.97;3.90;;;;;;;20.73;58.02;101243.38;2086703;28;20101;-71
2022/05/08 05:30:53;;;;;;;10.13;3.40;;;;;;;20.66;58.17;101241.72;2078416;28;20053;-71
2022/05/08 05:32:14;;;;;;;8.05;3.47;;;;;;;20.64;58.06;101243.53;2081385;28;20041;-72
2022/05/08 05:33:37;;;;;;;8.63;4.00;;;;;;;20.67;58.03;101241.69;2080452;28;20053;-72
2022/05/08 05:34:59;;;;;;;8.32;3.85;;;;;;;20.74;57.94;101244.28;2078773;28;20514;-72
2022/05/08 05:36:20;;;;;;;6.25;3.63;;;;;;;20.78;57.65;101238.81;2084379;28;20490;-71
2022/05/08 05:37:43;;;;;;;7.82;3.38;;;;;;;20.82;57.63;101242.31;2078419;28;20111;-72
2022/05/08 05:39:05;;;;;;;8.40;3.42;;;;;;;20.88;57.53;101239.50;2085785;28;20049;-72
2022/05/08 05:40:29;;;;;;;8.63;4.47;;;;;;;21.12;56.81;101240.84;2084875;28;20053;-72
2022/05/08 05:41:52;;;;;;;8.18;4.13;;;;;;;21.27;56.65;101244.13;2081149;28;20531;-71
2022/05/08 05:43:15;;;;;;;11.55;3.70;;;;;;;21.74;56.01;101250.25;2078651;28;20049;-72
2022/05/08 05:44:37;;;;;;;6.63;3.30;;;;;;;22.12;55.03;101244.91;2094980;28;20095;-72
2022/05/08 05:47:52;;;;;;;9.07;3.25;;;;;;;22.49;54.01;101246.69;2085055;28;20373;-72
2022/05/08 05:49:14;;;;;;;8.35;3.85;;;;;;;22.54;53.85;101244.75;2075309;28;20041;-72
2022/05/08 05:50:37;;;;;;;10.75;4.18;;;;;;;22.71;53.52;101242.50;2084028;28;20143;-72
2022/05/08 05:51:58;;;;;;;7.80;3.53;;;;;;;22.91;53.05;101240.19;2086605;28;20494;-72
2022/05/08 05:53:21;;;;;;;7.15;3.22;;;;;;;23.02;52.80;101242.59;2078322;28;20073;-72
2022/05/08 05:54:43;;;;;;;10.15;4.07;;;;;;;23.03;52.48;101245.25;2086388;28;20037;-72
2022/05/08 05:56:09;;;;;;;8.23;3.60;;;;;;;23.36;51.84;101242.53;2080615;28;20057;-72
2022/05/08 05:57:31;;;;;;;10.75;3.50;;;;;;;23.55;50.77;101248.28;2083343;28;20045;-72
2022/05/08 05:58:53;;;;;;;8.45;3.25;;;;;;;23.41;50.79;101249.53;2086450;28;20144;-72
2022/05/08 06:00:17;;;;;;;10.35;4.18;;;;;;;23.59;50.78;101241.84;2089008;28;20048;-72
2022/05/08 06:01:39;;;;;;;9.05;3.40;;;;;;;23.89;49.88;101242.72;2086668;28;20056;-71
2022/05/08 06:03:01;;;;;;;7.65;3.35;;;;;;;24.11;48.93;101251.88;2086443;28;20045;-72
2022/05/08 06:04:23;;;;;;;7.07;3.55;;;;;;;24.15;48.45;101238.25;2075581;28;20462;-72
2022/05/08 06:05:46;;;;;;;9.25;2.92;;;;;;;24.08;48.36;101249.31;2081617;28;20111;-72
2022/05/08 06:07:09;;;;;;;6.90;3.10;;;;;;;24.17;48.31;101241.78;2085007;28;20049;-71
2022/05/08 06:08:30;;;;;;;9.43;3.40;;;;;;;24.26;47.69;101246.03;2080211;28;20045;-72
2022/05/08 06:09:53;;;;;;;13.23;3.55;;;;;;;24.44;47.61;101242.72;2085700;28;20052;-71
2022/05/08 06:11:17;;;;;;;9.00;3.60;;;;;;;24.76;47.19;101244.28;2086474;28;20045;-72
2022/05/08 06:12:40;;;;;;;7.10;2.95;;;;;;;24.94;46.63;101243.66;2088329;28;20057;-71
2022/05/08 06:14:02;;;;;;;7.82;3.40;;;;;;;25.08;46.12;101248.56;2086569;28;20049;-71
2022/05/08 06:15:25;;;;;;;14.82;4.60;;;;;;;25.20;46.20;101245.44;2082103;28;20082;-72
2022/05/08 06:16:48;;;;;;;8.80;3.42;;;;;;;25.37;46.26;101242.97;2076453;28;20095;-72
2022/05/08 06:18:09;;;;;;;11.73;4.15;;;;;;;25.53;46.08;101237.88;2084236;28;20063;-72
2022/05/08 06:19:32;;;;;;;12.48;4.25;;;;;;;25.58;46.54;101244.00;2076920;28;20076;-72
2022/05/08 06:20:56;;;;;;;9.38;3.38;;;;;;;25.41;46.64;101247.31;2078541;28;20057;-71
2022/05/08 06:22:18;;;;;;;11.48;3.78;;;;;;;25.38;47.14;101247.44;2085634;28;20144;-72
2022/05/08 06:23:41;;;;;;;9.88;4.05;;;;;;;25.54;47.05;101250.44;2086408;28;20411;-71
2022/05/08 06:25:06;;;;;;;7.85;2.90;;;;;;;25.77;46.70;101246.88;2085726;28;20529;-71
2022/05/08 06:26:30;;;;;;;10.77;3.47;;;;;;;25.94;46.03;101251.59;2086814;28;20090;-71
2022/05/08 06:27:52;;;;;;;11.05;3.13;;;;;;;26.02;45.79;101253.06;2078424;28;20392;-71
2022/05/08 06:29:15;;;;;;;10.82;4.18;;;;;;;26.13;45.65;101258.03;2083857;28;20102;-71
2022/05/08 06:30:37;;;;;;;9.25;3.65;;;;;;;26.22;45.65;101252.25;2087864;28;20045;-72
2022/05/08 06:32:00;;;;;;;11.30;3.30;;;;;;;26.17;44.97;101256.97;2087755;28;20061;-72